createdAt,value
2023-04-10T00:02:10.846Z,101141.48
2023-04-10T00:04:43.105Z,101140.25
2023-04-10T00:07:54.913Z,101141.30
2023-04-10T00:16:13.253Z,101143.04
2023-04-10T00:17:13.906Z,101139.90
2023-04-10T00:17:55.602Z,101141.80
2023-04-10T00:20:32.917Z,101140.05
2023-04-10T00:23:19.055Z,101139.68
2023-04-10T00:26:04.333Z,101133.41
2023-04-10T00:28:51.750Z,101123.79
2023-04-10T00:31:54.312Z,101120.29
2023-04-10T00:34:26.247Z,101114.86
2023-04-10T00:37:14.148Z,101112.41
2023-04-10T00:40:04.019Z,101108.73
2023-04-10T00:42:41.974Z,101110.13
2023-04-10T00:45:12.645Z,101104.70
2023-04-10T00:47:46.917Z,101104.33
2023-04-10T00:50:19.559Z,101100.67
2023-04-10T00:52:51.603Z,101098.92
2023-04-10T00:55:21.195Z,101096.11
2023-04-10T00:57:50.828Z,101091.91
2023-04-10T01:00:20.543Z,101094.89
2023-04-10T01:03:11.354Z,101090.68
2023-04-10T01:06:13.279Z,101086.51
2023-04-10T01:18:57.589Z,101083.53
2023-04-10T01:19:55.600Z,101083.32
2023-04-10T01:25:28.774Z,101076.58
2023-04-10T01:28:20.854Z,101076.55
2023-04-10T01:30:54.006Z,101079.32
2023-04-10T01:33:30.781Z,101077.89
2023-04-10T01:36:03.229Z,101078.41
2023-04-10T01:38:33.311Z,101077.16
2023-04-10T01:41:04.133Z,101075.56
2023-04-10T01:43:34.330Z,101082.18
2023-04-10T01:46:04.897Z,101080.25
2023-04-10T01:48:34.523Z,101076.23
2023-04-10T01:51:07.274Z,101078.49
2023-04-10T01:53:37.571Z,101070.65
2023-04-10T01:56:10.566Z,101068.91
2023-04-10T01:58:39.972Z,101066.99
2023-04-10T02:01:16.407Z,101070.84
2023-04-10T02:03:52.114Z,101070.30
2023-04-10T02:06:34.902Z,101064.54
2023-04-10T02:09:12.631Z,101060.01
2023-04-10T02:11:47.581Z,101062.29
2023-04-10T02:14:21.736Z,101060.19
2023-04-10T02:16:54.111Z,101059.34
2023-04-10T02:19:25.208Z,101059.15
2023-04-10T02:21:55.081Z,101060.14
2023-04-10T02:24:24.707Z,101065.71
2023-04-10T02:26:54.419Z,101065.33
2023-04-10T02:29:23.689Z,101063.75
2023-04-10T02:31:52.977Z,101067.94
2023-04-10T02:34:36.761Z,101064.61
2023-04-10T02:37:06.145Z,101067.59
2023-04-10T02:39:36.592Z,101066.89
2023-04-10T02:42:09.935Z,101068.62
2023-04-10T02:44:39.403Z,101066.69
2023-04-10T02:47:23.418Z,101065.09
2023-04-10T02:49:52.744Z,101062.98
2023-04-10T02:52:21.908Z,101061.23
2023-04-10T02:54:51.470Z,101059.13
2023-04-10T02:57:35.710Z,101058.94
2023-04-10T03:00:07.125Z,101052.65
2023-04-10T03:02:46.237Z,101054.77
2023-04-10T03:05:19.009Z,101059.82
2023-04-10T03:07:58.756Z,101058.56
2023-04-10T03:10:28.828Z,101055.91
2023-04-10T03:13:04.347Z,101056.92
2023-04-10T03:15:34.452Z,101057.23
2023-04-10T03:18:09.125Z,101056.67
2023-04-10T03:20:40.532Z,101058.23
2023-04-10T03:23:10.467Z,101058.21
2023-04-10T03:25:42.084Z,101058.20
2023-04-10T03:28:11.482Z,101057.83
2023-04-10T03:30:43.234Z,101053.11
2023-04-10T03:33:12.641Z,101058.68
2023-04-10T03:35:41.820Z,101058.65
2023-04-10T03:38:15.165Z,101062.82
2023-04-10T03:40:44.553Z,101065.08
2023-04-10T03:43:25.729Z,101063.14
2023-04-10T03:46:15.873Z,101061.04
2023-04-10T03:48:45.223Z,101062.08
2023-04-10T03:51:14.498Z,101067.46
2023-04-10T03:53:43.718Z,101066.79
2023-04-10T03:56:21.995Z,101069.23
2023-04-10T03:59:04.372Z,101069.95
2023-04-10T04:01:40.750Z,101072.41
2023-04-10T04:04:17.236Z,101075.02
2023-04-10T04:06:49.008Z,101076.11
2023-04-10T04:09:18.261Z,101076.65
2023-04-10T04:11:50.512Z,101072.93
2023-04-10T04:14:38.318Z,101073.10
2023-04-10T04:17:09.649Z,101076.40
2023-04-10T04:19:40.043Z,101074.27
2023-04-10T04:22:26.617Z,101074.73
2023-04-10T04:24:56.289Z,101071.64
2023-04-10T04:27:29.895Z,101069.92
2023-04-10T04:30:03.881Z,101068.88
2023-04-10T04:32:33.352Z,101072.56
2023-04-10T04:35:02.809Z,101069.59
2023-04-10T04:37:37.996Z,101067.13
2023-04-10T04:40:10.133Z,101067.66
2023-04-10T04:42:40.459Z,101070.11
2023-04-10T04:45:12.256Z,101076.77
2023-04-10T04:47:42.010Z,101074.13
2023-04-10T04:50:12.220Z,101073.77
2023-04-10T04:52:42.080Z,101074.45
2023-04-10T04:55:12.360Z,101074.79
2023-04-10T04:58:10.235Z,101073.55
2023-04-10T05:00:40.552Z,101076.00
2023-04-10T05:03:10.798Z,101073.16
2023-04-10T05:05:57.720Z,101080.33
2023-04-10T05:08:27.109Z,101084.52
2023-04-10T05:10:56.456Z,101082.40
2023-04-10T05:13:28.240Z,101084.17
2023-04-10T05:16:00.721Z,101081.89
2023-04-10T05:18:30.184Z,101084.70
2023-04-10T05:21:21.074Z,101080.51
2023-04-10T05:23:50.567Z,101078.06
2023-04-10T05:29:22.364Z,101073.55
2023-04-10T05:31:53.229Z,101071.09
2023-04-10T05:34:23.078Z,101072.52
2023-04-10T05:36:52.362Z,101072.52
2023-04-10T05:39:21.563Z,101068.16
2023-04-10T05:41:51.069Z,101072.89
2023-04-10T05:44:20.371Z,101070.98
2023-04-10T05:46:49.590Z,101073.79
2023-04-10T05:49:18.963Z,101070.27
2023-04-10T05:51:49.843Z,101071.33
2023-04-10T05:54:26.132Z,101073.27
2023-04-10T05:56:56.934Z,101071.52
2023-04-10T05:59:26.362Z,101068.88
2023-04-10T06:01:56.504Z,101072.56
2023-04-10T06:04:26.291Z,101073.08
2023-04-10T06:06:56.693Z,101074.67
2023-04-10T06:12:21.620Z,101075.54
2023-04-10T06:13:39.454Z,101073.25
2023-04-10T06:16:09.982Z,101069.56
2023-04-10T06:18:39.264Z,101068.67
2023-04-10T06:21:09.541Z,101069.38
2023-04-10T06:23:38.882Z,101070.61
2023-04-10T06:26:08.665Z,101070.43
2023-04-10T06:28:38.397Z,101064.81
2023-04-10T06:31:11.166Z,101063.06
2023-04-10T06:33:43.571Z,101065.34
2023-04-10T06:36:36.189Z,101067.08
2023-04-10T06:39:09.055Z,101065.14
2023-04-10T06:41:38.353Z,101064.06
2023-04-10T06:44:07.908Z,101064.73
2023-04-10T06:46:37.219Z,101069.46
2023-04-10T06:49:10.888Z,101068.22
2023-04-10T06:51:48.154Z,101066.63
2023-04-10T06:54:17.633Z,101071.33
2023-04-10T06:56:46.960Z,101070.61
2023-04-10T06:59:31.574Z,101070.21
2023-04-10T07:02:01.247Z,101065.44
2023-04-10T07:04:30.843Z,101070.67
2023-04-10T07:07:00.218Z,101074.15
2023-04-10T07:09:30.546Z,101078.67
2023-04-10T07:11:59.886Z,101080.23
2023-04-10T07:17:48.897Z,101078.59
2023-04-10T07:20:18.717Z,101079.44
2023-04-10T07:22:48.203Z,101078.34
2023-04-10T07:25:18.113Z,101077.92
2023-04-10T07:27:47.630Z,101079.28
2023-04-10T07:30:18.915Z,101080.48
2023-04-10T07:32:50.445Z,101076.02
2023-04-10T07:35:26.540Z,101077.70
2023-04-10T07:37:57.249Z,101075.36
2023-04-10T07:40:26.558Z,101074.77
2023-04-10T07:42:55.747Z,101070.52
2023-04-10T07:45:25.902Z,101068.89
2023-04-10T07:47:55.643Z,101071.30
2023-04-10T07:54:07.081Z,101069.18
2023-04-10T07:59:54.539Z,101068.59
2023-04-10T08:02:31.920Z,101066.54
2023-04-10T08:03:33.232Z,101070.67
2023-04-10T08:03:49.753Z,101070.70
2023-04-10T08:05:10.730Z,101067.82
2023-04-10T08:07:40.294Z,101069.16
2023-04-10T08:10:12.035Z,101061.05
2023-04-10T08:13:17.374Z,101060.65
2023-04-10T08:15:55.366Z,101052.33
2023-04-10T08:18:25.139Z,101046.64
2023-04-10T08:20:54.402Z,101049.92
2023-04-10T08:23:35.554Z,101050.71
2023-04-10T08:26:20.142Z,101048.75
2023-04-10T08:28:55.812Z,101049.02
2023-04-10T08:31:41.801Z,101046.33
2023-04-10T08:34:11.137Z,101045.71
2023-04-10T08:36:42.601Z,101042.43
2023-04-10T08:39:12.715Z,101036.59
2023-04-10T08:41:51.029Z,101039.77
2023-04-10T08:44:20.450Z,101039.14
2023-04-10T08:46:50.600Z,101038.67
2023-04-10T08:49:28.185Z,101031.74
2023-04-10T08:51:59.141Z,101032.02
2023-04-10T08:54:34.746Z,101030.23
2023-04-10T08:57:21.755Z,101026.52
2023-04-10T09:00:23.335Z,101025.27
2023-04-10T09:03:45.002Z,101020.65
2023-04-10T09:06:51.857Z,101017.91
2023-04-10T09:09:11.830Z,101019.84
2023-04-10T09:12:01.511Z,101018.11
2023-04-10T09:16:21.307Z,101017.38
2023-04-10T09:17:38.438Z,101016.30
2023-04-10T09:20:31.604Z,101011.88
2023-04-10T09:23:22.400Z,101001.52
2023-04-10T09:25:55.969Z,100999.30
2023-04-10T09:28:25.908Z,100998.31
2023-04-10T09:30:55.791Z,100994.27
2023-04-10T09:33:27.507Z,100989.09
2023-04-10T09:36:00.377Z,100991.66
2023-04-10T09:39:07.811Z,100984.00
2023-04-10T09:42:04.290Z,100979.10
2023-04-10T09:44:39.887Z,100970.42
2023-04-10T09:47:21.046Z,100964.63
2023-04-10T09:49:52.367Z,100965.19
2023-04-10T09:52:24.272Z,100964.01
2023-04-10T09:54:54.336Z,100947.31
2023-04-10T09:57:28.400Z,100960.13
2023-04-10T10:00:00.051Z,100956.24
2023-04-10T10:02:33.750Z,100956.55
2023-04-10T10:05:04.736Z,100952.21
2023-04-10T10:07:42.985Z,100950.91
2023-04-10T10:10:13.694Z,100947.58
2023-04-10T10:12:52.036Z,100939.44
2023-04-10T10:15:29.113Z,100937.67
2023-04-10T10:18:11.103Z,100938.35
2023-04-10T10:20:46.674Z,100936.73
2023-04-10T10:23:17.803Z,100935.41
2023-04-10T10:25:51.619Z,100936.40
2023-04-10T10:28:22.625Z,100929.65
2023-04-10T10:30:52.968Z,100923.42
2023-04-10T10:33:23.082Z,100921.23
2023-04-10T10:35:52.996Z,100914.45
2023-04-10T10:38:22.928Z,100913.08
2023-04-10T10:41:02.259Z,100910.92
2023-04-10T10:43:42.680Z,100909.44
2023-04-10T10:46:16.979Z,100908.67
2023-04-10T10:48:57.937Z,100909.42
2023-04-10T10:51:44.138Z,100895.05
2023-04-10T10:54:28.908Z,100898.98
2023-04-10T10:56:58.507Z,100889.11
2023-04-10T10:59:57.635Z,100886.27
2023-04-10T11:02:27.289Z,100880.55
2023-04-10T11:04:56.627Z,100873.22
2023-04-10T11:08:03.186Z,100864.91
2023-04-10T11:11:01.811Z,100866.10
2023-04-10T11:13:31.699Z,100858.36
2023-04-10T11:16:16.494Z,100855.99
2023-04-10T11:19:13.118Z,100854.31
2023-04-10T11:22:08.764Z,100854.92
2023-04-10T11:24:56.965Z,100844.75
2023-04-10T11:27:46.205Z,100842.19
2023-04-10T11:30:35.912Z,100847.10
2023-04-10T11:33:06.296Z,100842.77
2023-04-10T11:35:35.706Z,100833.13
2023-04-10T11:38:17.410Z,100830.30
2023-04-10T11:40:57.708Z,100829.52
2023-04-10T11:43:27.285Z,100834.02
2023-04-10T11:46:07.555Z,100824.60
2023-04-10T11:48:38.109Z,100821.42
2023-04-10T11:51:15.176Z,100821.02
2023-04-10T11:53:44.787Z,100812.01
2023-04-10T11:56:19.957Z,100811.27
2023-04-10T11:58:53.489Z,100807.18
2023-04-10T12:01:23.800Z,100798.48
2023-04-10T12:03:53.452Z,100798.65
2023-04-10T12:06:23.191Z,100790.08
2023-04-10T12:08:53.212Z,100782.59
2023-04-10T12:11:24.718Z,100778.18
2023-04-10T12:13:55.112Z,100780.14
2023-04-10T12:16:26.081Z,100776.56
2023-04-10T12:18:55.948Z,100780.48
2023-04-10T12:21:26.921Z,100767.65
2023-04-10T12:23:56.312Z,100759.39
2023-04-10T12:26:25.484Z,100759.52
2023-04-10T12:28:56.884Z,100761.67
2023-04-10T12:31:30.764Z,100755.52
2023-04-10T12:34:01.756Z,100752.30
2023-04-10T12:36:33.741Z,100750.67
2023-04-10T12:39:04.315Z,100744.09
2023-04-10T12:41:59.019Z,100746.13
2023-04-10T12:44:34.188Z,100740.60
2023-04-10T12:47:15.504Z,100733.61
2023-04-10T12:50:04.035Z,100729.56
2023-04-10T12:52:33.532Z,100729.85
2023-04-10T12:55:14.187Z,100729.41
2023-04-10T12:57:45.365Z,100734.13
2023-04-10T13:00:17.467Z,100722.86
2023-04-10T13:02:48.508Z,100718.29
2023-04-10T13:05:37.149Z,100720.16
2023-04-10T13:08:06.537Z,100719.19
2023-04-10T13:10:44.406Z,100721.34
2023-04-10T13:13:29.287Z,100709.83
2023-04-10T13:15:58.890Z,100715.18
2023-04-10T13:18:28.290Z,100709.49
2023-04-10T13:20:57.736Z,100709.02
2023-04-10T13:23:37.173Z,100702.59
2023-04-10T13:26:06.996Z,100702.36
2023-04-10T13:28:36.184Z,100702.39
2023-04-10T13:31:05.970Z,100704.79
2023-04-10T13:33:35.569Z,100705.15
2023-04-10T13:36:06.006Z,100704.89
2023-04-10T13:38:49.337Z,100697.02
2023-04-10T13:41:19.939Z,100697.67
2023-04-10T13:43:49.807Z,100698.48
2023-04-10T13:46:19.606Z,100702.54
2023-04-10T13:48:48.904Z,100697.39
2023-04-10T13:51:19.740Z,100698.52
2023-04-10T13:53:49.133Z,100700.86
2023-04-10T13:56:18.601Z,100697.17
2023-04-10T13:58:48.782Z,100697.20
2023-04-10T14:01:29.247Z,100694.81
2023-04-10T14:03:59.288Z,100692.84
2023-04-10T14:06:38.071Z,100689.59
2023-04-10T14:09:07.446Z,100686.95
2023-04-10T14:11:36.775Z,100682.98
2023-04-10T14:14:26.023Z,100678.45
2023-04-10T14:17:06.998Z,100676.27
2023-04-10T14:19:51.939Z,100673.59
2023-04-10T14:22:23.171Z,100676.12
2023-04-10T14:25:01.725Z,100666.71
2023-04-10T14:27:41.520Z,100664.27
2023-04-10T14:30:11.542Z,100666.45
2023-04-10T14:32:58.398Z,100668.11
2023-04-10T14:35:27.583Z,100678.08
2023-04-10T14:37:56.674Z,100680.46
2023-04-10T14:40:27.390Z,100678.93
2023-04-10T14:42:56.502Z,100682.20
2023-04-10T14:45:27.521Z,100679.27
2023-04-10T14:47:57.102Z,100680.68
2023-04-10T14:50:26.716Z,100681.80
2023-04-10T14:52:59.186Z,100681.39
2023-04-10T14:55:29.981Z,100678.66
2023-04-10T14:57:59.259Z,100673.17
2023-04-10T15:00:29.326Z,100672.17
2023-04-10T15:02:58.926Z,100673.52
2023-04-10T15:05:28.701Z,100671.13
2023-04-10T15:07:58.031Z,100667.66
2023-04-10T15:10:30.133Z,100665.96
2023-04-10T15:12:59.456Z,100663.48
2023-04-10T15:15:28.774Z,100663.64
2023-04-10T15:17:58.255Z,100658.30
2023-04-10T15:20:28.071Z,100653.36
2023-04-10T15:22:58.402Z,100650.66
2023-04-10T15:25:28.173Z,100652.05
2023-04-10T15:27:59.317Z,100649.31
2023-04-10T15:30:30.461Z,100646.46
2023-04-10T15:33:13.166Z,100646.60
2023-04-10T15:35:42.652Z,100647.45
2023-04-10T15:38:12.852Z,100649.54
2023-04-10T15:40:42.097Z,100648.85
2023-04-10T15:43:11.214Z,100648.34
2023-04-10T15:45:41.016Z,100646.44
2023-04-10T15:48:10.644Z,100645.10
2023-04-10T15:50:40.230Z,100643.70
2023-04-10T15:53:11.003Z,100642.80
2023-04-10T15:55:41.659Z,100635.58
2023-04-10T15:58:10.823Z,100633.88
2023-04-10T16:00:39.824Z,100634.21
2023-04-10T16:03:09.319Z,100633.10
2023-04-10T16:05:38.650Z,100631.22
2023-04-10T16:08:07.729Z,100632.89
2023-04-10T16:10:36.993Z,100627.44
2023-04-10T16:13:06.222Z,100630.44
2023-04-10T16:15:36.786Z,100627.59
2023-04-10T16:18:07.213Z,100623.19
2023-04-10T16:20:36.529Z,100621.83
2023-04-10T16:23:05.846Z,100620.05
2023-04-10T16:25:35.128Z,100621.74
2023-04-10T16:28:07.241Z,100619.48
2023-04-10T16:30:36.417Z,100620.69
2023-04-10T16:33:06.208Z,100626.64
2023-04-10T16:35:35.468Z,100623.05
2023-04-10T16:38:04.752Z,100626.16
2023-04-10T16:40:41.309Z,100624.61
2023-04-10T16:43:11.530Z,100626.38
2023-04-10T16:45:42.195Z,100626.00
2023-04-10T16:48:11.538Z,100627.07
2023-04-10T16:50:40.780Z,100623.67
2023-04-10T16:53:09.872Z,100622.30
2023-04-10T16:56:06.100Z,100623.20
2023-04-10T16:59:04.385Z,100626.23
2023-04-10T17:01:38.914Z,100626.41
2023-04-10T17:04:08.729Z,100628.81
2023-04-10T17:06:38.056Z,100632.25
2023-04-10T17:09:07.099Z,100636.45
2023-04-10T17:11:36.476Z,100636.95
2023-04-10T17:14:06.774Z,100640.56
2023-04-10T17:16:36.145Z,100640.32
2023-04-10T17:19:05.573Z,100641.25
2023-04-10T17:21:37.400Z,100642.02
2023-04-10T17:24:07.429Z,100644.57
2023-04-10T17:26:42.754Z,100645.00
2023-04-10T17:29:12.471Z,100647.02
2023-04-10T17:31:42.104Z,100649.41
2023-04-10T17:34:14.135Z,100653.72
2023-04-10T17:36:43.442Z,100651.83
2023-04-10T17:39:12.661Z,100655.11
2023-04-10T17:41:42.047Z,100659.23
2023-04-10T17:44:11.530Z,100659.48
2023-04-10T17:46:40.635Z,100663.27
2023-04-10T17:49:14.704Z,100665.09
2023-04-10T17:51:46.187Z,100665.55
2023-04-10T17:54:15.605Z,100669.77
2023-04-10T17:56:45.015Z,100663.50
2023-04-10T17:59:14.261Z,100665.85
2023-04-10T18:01:43.669Z,100662.58
2023-04-10T18:04:13.002Z,100662.06
2023-04-10T18:06:42.306Z,100660.04
2023-04-10T18:09:11.738Z,100663.23
2023-04-10T18:11:41.066Z,100662.99
2023-04-10T18:14:10.526Z,100663.92
2023-04-10T18:16:39.933Z,100667.38
2023-04-10T18:19:09.501Z,100662.02
2023-04-10T18:21:41.302Z,100665.95
2023-04-10T18:24:10.807Z,100664.92
2023-04-10T18:26:40.677Z,100662.17
2023-04-10T18:29:15.943Z,100664.01
2023-04-10T18:31:45.621Z,100665.13
2023-04-10T18:34:14.837Z,100664.49
2023-04-10T18:36:45.221Z,100660.85
2023-04-10T18:39:14.608Z,100660.23
2023-04-10T18:41:43.788Z,100659.23
2023-04-10T18:44:13.047Z,100654.34
2023-04-10T18:46:46.160Z,100653.98
2023-04-10T18:49:18.241Z,100649.65
2023-04-10T18:51:50.509Z,100646.67
2023-04-10T18:54:19.553Z,100645.96
2023-04-10T18:56:49.009Z,100646.68
2023-04-10T18:59:18.224Z,100645.84
2023-04-10T19:01:48.009Z,100648.52
2023-04-10T19:04:24.221Z,100644.89
2023-04-10T19:06:53.603Z,100648.67
2023-04-10T19:09:22.747Z,100648.20
2023-04-10T19:11:53.505Z,100645.84
2023-04-10T19:14:22.803Z,100643.03
2023-04-10T19:16:52.063Z,100644.65
2023-04-10T19:19:21.410Z,100639.91
2023-04-10T19:21:52.968Z,100639.96
2023-04-10T19:24:22.565Z,100640.77
2023-04-10T19:26:54.096Z,100637.83
2023-04-10T19:29:25.348Z,100637.89
2023-04-10T19:31:56.455Z,100639.16
2023-04-10T19:34:25.879Z,100639.01
2023-04-10T19:36:55.369Z,100637.45
2023-04-10T19:39:24.554Z,100639.73
2023-04-10T19:41:55.759Z,100638.20
2023-04-10T19:44:25.417Z,100635.44
2023-04-10T19:46:54.629Z,100634.78
2023-04-10T19:49:24.081Z,100635.70
2023-04-10T19:51:53.707Z,100635.72
2023-04-10T19:54:23.183Z,100633.33
2023-04-10T19:56:52.425Z,100634.92
2023-04-10T19:59:22.342Z,100630.25
2023-04-10T20:01:51.627Z,100630.80
2023-04-10T20:04:20.863Z,100630.50
2023-04-10T20:06:50.394Z,100633.99
2023-04-10T20:09:19.535Z,100633.50
2023-04-10T20:11:52.023Z,100632.84
2023-04-10T20:14:21.334Z,100630.52
2023-04-10T20:16:50.920Z,100632.98
2023-04-10T20:19:23.396Z,100631.37
2023-04-10T20:22:08.884Z,100624.86
2023-04-10T20:24:38.825Z,100626.12
2023-04-10T20:27:11.875Z,100625.60
2023-04-10T20:29:41.634Z,100621.73
2023-04-10T20:32:11.116Z,100621.89
2023-04-10T20:34:45.743Z,100618.36
2023-04-10T20:37:21.224Z,100614.86
2023-04-10T20:39:51.549Z,100611.20
2023-04-10T20:42:20.796Z,100607.23
2023-04-10T20:44:55.310Z,100607.05
2023-04-10T20:47:24.950Z,100603.08
2023-04-10T20:49:54.317Z,100601.69
2023-04-10T20:52:24.062Z,100599.86
2023-04-10T20:54:53.435Z,100597.75
2023-04-10T20:57:23.171Z,100597.61
2023-04-10T20:59:56.775Z,100596.42
2023-04-10T21:02:26.072Z,100595.09
2023-04-10T21:04:55.538Z,100592.98
2023-04-10T21:07:24.450Z,100594.22
2023-04-10T21:09:53.794Z,100587.05
2023-04-10T21:12:23.930Z,100587.23
2023-04-10T21:14:53.165Z,100587.27
2023-04-10T21:17:23.324Z,100585.51
2023-04-10T21:19:53.819Z,100585.14
2023-04-10T21:22:22.984Z,100582.91
2023-04-10T21:24:52.346Z,100579.64
2023-04-10T21:27:21.600Z,100577.89
2023-04-10T21:29:50.551Z,100572.43
2023-04-10T21:32:23.242Z,100571.51
2023-04-10T21:34:52.414Z,100569.38
2023-04-10T21:37:21.677Z,100571.33
2023-04-10T21:39:52.020Z,100565.21
2023-04-10T21:42:21.151Z,100559.59
2023-04-10T21:44:50.210Z,100563.13
2023-04-10T21:47:19.528Z,100562.48
2023-04-10T21:49:48.533Z,100563.22
2023-04-10T21:52:17.652Z,100562.42
2023-04-10T21:54:47.005Z,100560.52
2023-04-10T21:57:16.144Z,100562.94
2023-04-10T21:59:45.475Z,100563.79
2023-04-10T22:02:15.179Z,100567.23
2023-04-10T22:04:54.674Z,100565.66
2023-04-10T22:07:39.821Z,100563.65
2023-04-10T22:10:10.934Z,100561.73
2023-04-10T22:12:41.381Z,100565.85
2023-04-10T22:15:21.116Z,100563.08
2023-04-10T22:17:50.608Z,100560.83
2023-04-10T22:20:19.709Z,100562.59
2023-04-10T22:23:19.682Z,100561.77
2023-04-10T22:25:47.189Z,100560.38
2023-04-10T22:28:16.948Z,100560.21
2023-04-10T22:30:54.985Z,100559.50
2023-04-10T22:33:24.357Z,100555.15
2023-04-10T22:35:53.700Z,100549.94
2023-04-10T22:38:22.782Z,100546.45
2023-04-10T22:40:55.425Z,100539.05
2023-04-10T22:43:24.939Z,100537.63
2023-04-10T22:45:54.802Z,100540.27
2023-04-10T22:48:24.472Z,100536.39
2023-04-10T22:50:53.815Z,100528.29
2023-04-10T22:53:23.158Z,100523.38
2023-04-10T22:55:52.320Z,100522.30
2023-04-10T22:58:21.391Z,100519.81
2023-04-10T23:00:50.644Z,100517.74
2023-04-10T23:03:19.711Z,100514.71
2023-04-10T23:05:48.948Z,100513.28
2023-04-10T23:08:18.349Z,100507.34
2023-04-10T23:10:47.773Z,100503.67
2023-04-10T23:13:17.396Z,100497.27
2023-04-10T23:15:50.315Z,100493.33
2023-04-10T23:18:19.966Z,100489.77
2023-04-10T23:20:49.982Z,100487.22
2023-04-10T23:23:20.718Z,100483.90
2023-04-10T23:25:58.071Z,100480.05
2023-04-10T23:28:28.468Z,100480.29
2023-04-10T23:30:57.845Z,100474.25
2023-04-10T23:33:27.623Z,100473.50
2023-04-10T23:35:57.027Z,100468.66
2023-04-10T23:38:26.315Z,100467.19
2023-04-10T23:40:56.992Z,100462.12
2023-04-10T23:43:27.155Z,100461.04
2023-04-10T23:45:56.338Z,100459.40
2023-04-10T23:48:25.761Z,100457.45
2023-04-10T23:51:04.596Z,100455.03
2023-04-10T23:53:34.042Z,100454.81
2023-04-10T23:56:03.330Z,100451.86
2023-04-10T23:58:32.793Z,100452.29
